createdAt,value
2018-09-19T00:00:33.514Z,21.60
2018-09-19T00:03:01.849Z,21.60
2018-09-19T00:05:30.188Z,21.60
2018-09-19T00:07:58.530Z,21.60
2018-09-19T00:10:26.996Z,21.60
2018-09-19T00:12:55.321Z,21.60
2018-09-19T00:15:23.662Z,21.60
2018-09-19T00:17:52.013Z,21.50
2018-09-19T00:20:20.426Z,21.50
2018-09-19T00:22:48.701Z,21.50
2018-09-19T00:25:17.042Z,21.50
2018-09-19T00:27:45.390Z,21.50
2018-09-19T00:30:13.771Z,21.50
2018-09-19T00:32:42.113Z,21.50
2018-09-19T00:35:10.442Z,21.40
2018-09-19T00:37:38.784Z,21.50
2018-09-19T00:40:13.789Z,21.40
2018-09-19T00:42:42.122Z,21.40
2018-09-19T00:45:10.464Z,21.40
2018-09-19T00:47:38.792Z,21.40
2018-09-19T00:52:41.711Z,21.30
2018-09-19T00:55:10.062Z,21.30
2018-09-19T00:57:38.394Z,21.30
2018-09-19T01:00:06.736Z,21.20
2018-09-19T01:02:35.054Z,21.20
2018-09-19T01:05:03.412Z,21.20
2018-09-19T01:07:31.731Z,21.20
2018-09-19T01:10:00.086Z,21.10
2018-09-19T01:12:28.405Z,21.10
2018-09-19T01:14:56.749Z,21.00
2018-09-19T01:17:25.101Z,21.00
2018-09-19T01:19:53.563Z,21.00
2018-09-19T01:22:21.893Z,20.90
2018-09-19T01:24:50.244Z,20.90
2018-09-19T01:27:18.600Z,20.80
2018-09-19T01:29:53.742Z,20.80
2018-09-19T01:32:22.052Z,20.80
2018-09-19T01:34:50.446Z,20.70
2018-09-19T01:37:18.761Z,20.70
2018-09-19T01:39:47.105Z,20.60
2018-09-19T01:42:15.462Z,20.60
2018-09-19T01:44:43.797Z,20.50
2018-09-19T01:47:12.156Z,20.50
2018-09-19T01:49:40.486Z,20.50
2018-09-19T01:52:08.802Z,20.40
2018-09-19T01:54:37.146Z,20.40
2018-09-19T01:57:05.482Z,20.30
2018-09-19T01:59:33.823Z,20.30
2018-09-19T02:02:02.156Z,20.30
2018-09-19T02:04:30.495Z,20.20
2018-09-19T02:06:58.835Z,20.20
2018-09-19T02:09:27.169Z,20.10
2018-09-19T02:11:55.514Z,20.10
2018-09-19T02:14:23.926Z,20.00
2018-09-19T02:16:52.270Z,20.00
2018-09-19T02:19:20.607Z,19.90
2018-09-19T02:21:48.954Z,19.80
2018-09-19T02:24:17.314Z,19.80
2018-09-19T02:26:45.654Z,19.70
2018-09-19T02:29:13.985Z,19.70
2018-09-19T02:31:42.331Z,19.60
2018-09-19T02:34:10.655Z,19.60
2018-09-19T02:36:39.001Z,19.50
2018-09-19T02:39:09.394Z,19.50
2018-09-19T02:41:37.869Z,19.40
2018-09-19T02:44:06.630Z,19.30
2018-09-19T02:46:35.023Z,19.30
2018-09-19T02:49:03.334Z,19.30
2018-09-19T02:51:31.699Z,19.20
2018-09-19T02:54:00.024Z,19.20
2018-09-19T02:56:28.366Z,19.20
2018-09-19T02:58:56.692Z,19.10
2018-09-19T03:01:25.026Z,19.10
2018-09-19T03:03:53.372Z,19.10
2018-09-19T03:06:21.702Z,19.00
2018-09-19T03:08:50.022Z,19.00
2018-09-19T03:11:18.358Z,18.90
2018-09-19T03:13:46.678Z,18.90
2018-09-19T03:16:17.983Z,18.90
2018-09-19T03:18:46.305Z,18.90
2018-09-19T03:21:14.650Z,18.80
2018-09-19T03:23:44.020Z,18.80
2018-09-19T03:26:12.403Z,18.80
2018-09-19T03:28:40.721Z,18.70
2018-09-19T03:31:09.052Z,18.80
2018-09-19T03:33:37.441Z,18.70
2018-09-19T03:36:05.790Z,18.70
2018-09-19T03:38:34.134Z,18.70
2018-09-19T03:41:02.458Z,18.70
2018-09-19T03:43:30.771Z,18.60
2018-09-19T03:45:59.116Z,18.60
2018-09-19T03:48:27.442Z,18.60
2018-09-19T03:50:55.871Z,18.60
2018-09-19T03:53:24.247Z,18.60
2018-09-19T03:55:52.573Z,18.50
2018-09-19T03:58:20.953Z,18.50
2018-09-19T04:00:49.288Z,18.50
2018-09-19T04:03:17.600Z,18.50
2018-09-19T04:05:45.935Z,18.40
2018-09-19T04:08:14.246Z,18.40
2018-09-19T04:10:42.567Z,18.30
2018-09-19T04:13:10.887Z,18.30
2018-09-19T04:15:39.224Z,18.30
2018-09-19T04:18:07.543Z,18.20
2018-09-19T04:20:35.878Z,18.20
2018-09-19T04:23:04.206Z,18.10
2018-09-19T04:25:32.538Z,18.10
2018-09-19T04:28:00.854Z,18.10
2018-09-19T04:30:29.277Z,18.10
2018-09-19T04:32:57.626Z,18.10
2018-09-19T04:35:25.941Z,18.00
2018-09-19T04:37:54.285Z,18.00
2018-09-19T04:40:22.594Z,18.00
2018-09-19T04:42:50.931Z,18.00
2018-09-19T04:45:19.328Z,18.00
2018-09-19T04:47:47.605Z,18.00
2018-09-19T04:50:15.916Z,17.90
2018-09-19T04:52:44.242Z,17.90
2018-09-19T04:55:12.558Z,17.90
2018-09-19T04:57:40.904Z,17.90
2018-09-19T05:00:09.255Z,17.80
2018-09-19T05:02:37.595Z,17.80
2018-09-19T05:05:05.922Z,17.80
2018-09-19T05:07:34.259Z,17.70
2018-09-19T05:10:02.572Z,17.70
2018-09-19T05:12:30.919Z,17.70
2018-09-19T05:14:59.242Z,17.70
2018-09-19T05:17:27.574Z,17.70
2018-09-19T05:19:55.902Z,17.60
2018-09-19T05:22:24.242Z,17.60
2018-09-19T05:24:52.557Z,17.60
2018-09-19T05:27:20.901Z,17.60
2018-09-19T05:29:49.211Z,17.60
2018-09-19T05:32:17.550Z,17.50
2018-09-19T05:34:45.865Z,17.50
2018-09-19T05:37:14.223Z,17.40
2018-09-19T05:39:42.553Z,17.40
2018-09-19T05:42:10.923Z,17.40
2018-09-19T05:44:39.235Z,17.40
2018-09-19T05:47:07.606Z,17.30
2018-09-19T05:49:35.926Z,17.30
2018-09-19T05:52:04.251Z,17.30
2018-09-19T05:54:32.573Z,17.30
2018-09-19T05:57:00.922Z,17.30
2018-09-19T05:59:29.239Z,17.30
2018-09-19T06:01:57.594Z,17.30
2018-09-19T06:04:25.916Z,17.30
2018-09-19T06:06:54.253Z,17.30
2018-09-19T06:09:22.570Z,17.30
2018-09-19T06:11:50.919Z,17.30
2018-09-19T06:14:19.250Z,17.30
2018-09-19T06:16:47.591Z,17.20
2018-09-19T06:19:15.944Z,17.20
2018-09-19T06:21:44.822Z,17.20
2018-09-19T06:24:13.173Z,17.10
2018-09-19T06:26:41.510Z,17.10
2018-09-19T06:29:09.831Z,17.10
2018-09-19T06:31:38.175Z,17.10
2018-09-19T06:34:06.515Z,17.10
2018-09-19T06:36:41.633Z,17.10
2018-09-19T06:39:10.722Z,17.10
2018-09-19T06:41:39.208Z,17.10
2018-09-19T06:44:07.695Z,17.20
2018-09-19T06:46:36.011Z,17.20
2018-09-19T06:49:04.364Z,17.20
2018-09-19T06:51:32.698Z,17.30
2018-09-19T06:54:01.038Z,17.30
2018-09-19T06:56:29.358Z,17.40
2018-09-19T06:58:57.693Z,17.50
2018-09-19T07:01:26.023Z,17.50
2018-09-19T07:03:54.388Z,17.60
2018-09-19T07:06:23.729Z,17.60
2018-09-19T07:08:52.066Z,17.70
2018-09-19T07:11:20.982Z,17.80
2018-09-19T07:13:49.323Z,17.80
2018-09-19T07:16:17.643Z,17.90
2018-09-19T07:18:46.031Z,18.00
2018-09-19T07:21:14.481Z,18.10
2018-09-19T07:23:42.832Z,18.20
2018-09-19T07:26:11.188Z,18.30
2018-09-19T07:28:39.527Z,18.30
2018-09-19T07:31:07.890Z,18.40
2018-09-19T07:33:36.217Z,18.50
2018-09-19T07:36:04.550Z,18.60
2018-09-19T07:38:32.905Z,18.70
2018-09-19T07:41:01.210Z,18.90
2018-09-19T07:43:29.542Z,19.00
2018-09-19T07:45:57.855Z,19.10
2018-09-19T07:48:26.191Z,19.20
2018-09-19T07:50:54.543Z,19.30
2018-09-19T07:53:22.908Z,19.50
2018-09-19T07:55:59.415Z,19.60
2018-09-19T07:58:27.750Z,19.70
2018-09-19T08:00:56.290Z,19.90
2018-09-19T08:03:24.546Z,20.00
2018-09-19T08:05:53.018Z,20.20
2018-09-19T08:08:21.822Z,20.30
2018-09-19T08:10:50.250Z,20.50
2018-09-19T08:13:18.640Z,20.60
2018-09-19T08:15:46.975Z,20.70
2018-09-19T08:18:15.321Z,20.80
2018-09-19T08:20:43.648Z,20.90
2018-09-19T08:23:12.294Z,21.00
2018-09-19T08:25:40.607Z,21.10
2018-09-19T08:28:08.955Z,21.20
2018-09-19T08:30:37.271Z,21.40
2018-09-19T08:33:05.610Z,21.50
2018-09-19T08:35:33.962Z,21.60
2018-09-19T08:38:02.357Z,21.70
2018-09-19T08:40:30.685Z,21.80
2018-09-19T08:42:59.039Z,21.90
2018-09-19T08:45:27.366Z,22.00
2018-09-19T08:47:55.702Z,22.10
2018-09-19T08:50:24.076Z,22.20
2018-09-19T08:52:52.401Z,22.30
2018-09-19T08:55:20.719Z,22.40
2018-09-19T08:57:49.061Z,22.50
2018-09-19T09:00:17.393Z,22.60
2018-09-19T09:02:45.721Z,22.70
2018-09-19T09:05:14.057Z,22.80
2018-09-19T09:07:42.375Z,22.90
2018-09-19T09:10:10.707Z,23.00
2018-09-19T09:12:39.123Z,23.10
2018-09-19T09:15:07.730Z,23.20
2018-09-19T09:17:36.068Z,23.30
2018-09-19T09:20:04.597Z,23.30
2018-09-19T09:22:32.808Z,23.40
2018-09-19T09:25:01.149Z,23.50
2018-09-19T09:27:29.522Z,23.60
2018-09-19T09:29:57.859Z,23.70
2018-09-19T09:32:26.167Z,23.80
2018-09-19T09:34:54.522Z,23.90
2018-09-19T09:37:22.852Z,24.00
2018-09-19T09:39:51.186Z,24.10
2018-09-19T09:42:19.504Z,24.10
2018-09-19T09:44:47.851Z,24.20
2018-09-19T09:47:16.173Z,24.30
2018-09-19T09:49:44.509Z,24.40
2018-09-19T09:52:12.831Z,24.50
2018-09-19T09:57:15.758Z,24.70
2018-09-19T09:59:44.086Z,24.70
2018-09-19T10:02:12.398Z,24.80
2018-09-19T10:04:40.738Z,24.90
2018-09-19T10:07:09.050Z,25.00
2018-09-19T10:09:44.142Z,25.10
2018-09-19T10:12:12.453Z,25.20
2018-09-19T10:14:40.874Z,25.20
2018-09-19T10:17:09.187Z,25.30
2018-09-19T10:19:37.530Z,25.40
2018-09-19T10:22:05.863Z,25.50
2018-09-19T10:24:34.215Z,25.50
2018-09-19T10:27:02.527Z,25.70
2018-09-19T10:29:30.888Z,25.70
2018-09-19T10:31:59.218Z,25.80
2018-09-19T10:34:27.559Z,25.90
2018-09-19T10:36:55.902Z,26.00
2018-09-19T10:39:24.239Z,26.10
2018-09-19T10:41:52.719Z,26.10
2018-09-19T10:44:21.058Z,26.20
2018-09-19T10:46:49.388Z,26.30
2018-09-19T10:49:17.780Z,26.40
2018-09-19T10:51:46.110Z,26.40
2018-09-19T10:54:14.471Z,26.60
2018-09-19T10:56:42.837Z,26.60
2018-09-19T10:59:11.167Z,26.70
2018-09-19T11:01:39.494Z,26.90
2018-09-19T11:04:07.830Z,26.90
2018-09-19T11:06:36.183Z,27.00
2018-09-19T11:09:06.251Z,27.10
2018-09-19T11:11:34.591Z,27.10
2018-09-19T11:14:02.906Z,27.20
2018-09-19T11:16:31.250Z,27.30
2018-09-19T11:18:59.604Z,27.40
2018-09-19T11:21:27.958Z,27.50
2018-09-19T11:23:56.286Z,27.60
2018-09-19T11:26:24.702Z,27.60
2018-09-19T11:28:53.018Z,27.70
2018-09-19T11:31:21.354Z,27.80
2018-09-19T11:33:49.691Z,27.90
2018-09-19T11:36:18.035Z,28.00
2018-09-19T11:38:46.354Z,28.00
2018-09-19T11:41:14.702Z,28.10
2018-09-19T11:43:43.022Z,28.20
2018-09-19T11:46:11.364Z,28.30
2018-09-19T11:48:39.712Z,28.40
2018-09-19T11:51:08.066Z,28.50
2018-09-19T11:53:36.405Z,28.60
2018-09-19T11:56:04.749Z,28.80
2018-09-19T11:58:33.078Z,28.80
2018-09-19T12:01:01.406Z,28.90
2018-09-19T12:03:30.170Z,29.00
2018-09-19T12:05:58.511Z,29.00
2018-09-19T12:08:26.838Z,29.10
2018-09-19T12:10:55.174Z,29.20
2018-09-19T12:13:23.501Z,29.30
2018-09-19T12:15:51.838Z,29.40
2018-09-19T12:18:20.154Z,29.50
2018-09-19T12:20:48.494Z,29.60
2018-09-19T12:23:16.811Z,29.60
2018-09-19T12:25:45.143Z,29.70
2018-09-19T12:28:13.478Z,29.80
2018-09-19T12:30:41.816Z,29.90
2018-09-19T12:33:10.211Z,30.00
2018-09-19T12:35:38.534Z,30.10
2018-09-19T12:38:06.860Z,30.20
2018-09-19T12:40:35.190Z,30.30
2018-09-19T12:43:03.507Z,30.40
2018-09-19T12:45:31.846Z,30.50
2018-09-19T12:48:00.181Z,30.60
2018-09-19T12:50:28.515Z,30.70
2018-09-19T12:52:56.825Z,30.70
2018-09-19T12:55:25.165Z,30.80
2018-09-19T12:57:53.498Z,30.90
2018-09-19T13:00:21.849Z,30.90
2018-09-19T13:02:50.179Z,30.90
2018-09-19T13:05:18.502Z,31.00
2018-09-19T13:07:46.935Z,31.00
2018-09-19T13:10:15.275Z,31.00
2018-09-19T13:12:43.602Z,31.10
2018-09-19T13:15:11.907Z,31.10
2018-09-19T13:17:40.244Z,31.20
2018-09-19T13:20:08.566Z,31.10
2018-09-19T13:22:36.904Z,31.20
2018-09-19T13:25:05.258Z,31.20
2018-09-19T13:27:33.622Z,31.20
2018-09-19T13:30:01.937Z,31.30
2018-09-19T13:32:30.282Z,31.30
2018-09-19T13:34:58.604Z,31.40
2018-09-19T13:37:26.972Z,31.50
2018-09-19T13:39:55.286Z,31.60
2018-09-19T13:42:23.614Z,31.60
2018-09-19T13:44:51.918Z,31.60
2018-09-19T13:47:20.250Z,31.60
2018-09-19T13:49:52.661Z,31.60
2018-09-19T13:52:20.986Z,31.60
2018-09-19T13:54:49.294Z,31.60
2018-09-19T13:57:17.618Z,31.70
2018-09-19T13:59:45.925Z,31.70
2018-09-19T14:02:14.257Z,31.80
2018-09-19T14:04:42.585Z,31.80
2018-09-19T14:07:10.921Z,31.80
2018-09-19T14:09:39.233Z,31.80
2018-09-19T14:12:07.617Z,31.90
2018-09-19T14:14:35.941Z,31.90
2018-09-19T14:17:04.269Z,31.90
2018-09-19T14:19:32.579Z,32.00
2018-09-19T14:22:01.876Z,32.00
2018-09-19T14:24:30.190Z,32.00
2018-09-19T14:26:58.525Z,32.00
2018-09-19T14:29:26.839Z,32.00
2018-09-19T14:31:55.175Z,31.90
2018-09-19T14:34:23.505Z,31.90
2018-09-19T14:36:51.878Z,31.80
2018-09-19T14:39:20.217Z,31.80
2018-09-19T14:41:48.546Z,31.80
2018-09-19T14:44:16.871Z,31.80
2018-09-19T14:46:45.206Z,31.80
2018-09-19T14:49:13.523Z,31.80
2018-09-19T14:51:41.847Z,31.80
2018-09-19T14:54:10.200Z,31.70
2018-09-19T14:56:38.585Z,31.60
2018-09-19T14:59:07.090Z,31.60
2018-09-19T15:01:35.422Z,31.60
2018-09-19T15:04:03.735Z,31.50
2018-09-19T15:06:32.074Z,31.50
2018-09-19T15:09:00.381Z,31.50
2018-09-19T15:11:28.705Z,31.40
2018-09-19T15:13:57.038Z,31.30
2018-09-19T15:16:25.345Z,31.30
2018-09-19T15:18:53.698Z,31.20
2018-09-19T15:21:22.018Z,31.20
2018-09-19T15:23:50.349Z,31.10
2018-09-19T15:26:18.658Z,31.10
2018-09-19T15:28:46.998Z,31.00
2018-09-19T15:31:15.318Z,30.90
2018-09-19T15:33:43.650Z,30.90
2018-09-19T15:36:12.033Z,30.80
2018-09-19T15:38:40.366Z,30.70
2018-09-19T15:41:08.698Z,30.60
2018-09-19T15:43:37.064Z,30.60
2018-09-19T15:46:05.377Z,30.50
2018-09-19T15:48:33.782Z,30.40
2018-09-19T15:51:02.047Z,30.30
2018-09-19T15:53:31.685Z,30.20
2018-09-19T15:56:00.867Z,30.20
2018-09-19T15:58:29.269Z,30.10
2018-09-19T16:00:57.594Z,30.10
2018-09-19T16:03:26.365Z,30.00
2018-09-19T16:05:54.782Z,29.90
2018-09-19T16:08:23.402Z,29.90
2018-09-19T16:10:51.717Z,29.90
2018-09-19T16:13:20.050Z,29.80
2018-09-19T16:15:48.410Z,29.70
2018-09-19T16:18:16.738Z,29.70
2018-09-19T16:20:45.082Z,29.60
2018-09-19T16:23:13.472Z,29.60
2018-09-19T16:25:41.789Z,29.50
2018-09-19T16:28:10.135Z,29.40
2018-09-19T16:30:38.459Z,29.30
2018-09-19T16:33:06.798Z,29.30
2018-09-19T16:35:35.130Z,29.20
2018-09-19T16:38:03.519Z,29.10
2018-09-19T16:40:31.845Z,29.10
2018-09-19T16:43:00.203Z,29.00
2018-09-19T16:45:28.555Z,28.90
2018-09-19T16:47:56.896Z,28.90
2018-09-19T16:50:25.210Z,28.80
2018-09-19T16:52:53.619Z,28.80
2018-09-19T16:55:21.959Z,28.70
2018-09-19T16:57:50.307Z,28.60
2018-09-19T17:00:18.650Z,28.60
2018-09-19T17:02:46.993Z,28.50
2018-09-19T17:05:15.305Z,28.40
2018-09-19T17:07:43.880Z,28.30
2018-09-19T17:10:12.234Z,28.20
2018-09-19T17:12:40.572Z,28.20
2018-09-19T17:15:08.943Z,28.10
2018-09-19T17:17:37.291Z,28.00
2018-09-19T17:20:05.746Z,27.90
2018-09-19T17:22:34.094Z,27.90
2018-09-19T17:25:02.425Z,27.80
2018-09-19T17:27:30.750Z,27.70
2018-09-19T17:29:59.135Z,27.60
2018-09-19T17:32:27.454Z,27.50
2018-09-19T17:34:55.783Z,27.50
2018-09-19T17:37:24.335Z,27.40
2018-09-19T17:39:52.586Z,27.30
2018-09-19T17:42:20.904Z,27.30
2018-09-19T17:44:49.246Z,27.20
2018-09-19T17:47:17.554Z,27.20
2018-09-19T17:49:45.926Z,27.10
2018-09-19T17:52:14.306Z,27.00
2018-09-19T17:54:44.366Z,27.00
2018-09-19T17:57:12.679Z,26.90
2018-09-19T17:59:41.020Z,26.80
2018-09-19T18:02:09.339Z,26.70
2018-09-19T18:04:37.697Z,26.60
2018-09-19T18:07:06.063Z,26.60
2018-09-19T18:09:34.410Z,26.50
2018-09-19T18:12:02.722Z,26.40
2018-09-19T18:14:31.082Z,26.30
2018-09-19T18:16:59.690Z,26.20
2018-09-19T18:19:28.073Z,26.20
2018-09-19T18:21:56.398Z,26.10
2018-09-19T18:24:24.722Z,26.00
2018-09-19T18:26:53.031Z,26.00
2018-09-19T18:29:21.378Z,25.90
2018-09-19T18:31:49.821Z,25.90
2018-09-19T18:34:18.157Z,25.80
2018-09-19T18:36:46.485Z,25.70
2018-09-19T18:39:14.875Z,25.70
2018-09-19T18:41:43.249Z,25.60
2018-09-19T18:44:11.674Z,25.50
2018-09-19T18:46:40.298Z,25.50
2018-09-19T18:49:08.765Z,25.40
2018-09-19T18:51:37.098Z,25.30
2018-09-19T18:54:05.438Z,25.30
2018-09-19T18:56:33.774Z,25.20
2018-09-19T18:59:02.117Z,25.20
2018-09-19T19:01:30.820Z,25.10
2018-09-19T19:03:59.503Z,25.00
2018-09-19T19:06:27.829Z,24.90
2018-09-19T19:08:56.194Z,24.90
2018-09-19T19:11:24.521Z,24.80
2018-09-19T19:13:52.862Z,24.80
2018-09-19T19:16:21.202Z,24.70
2018-09-19T19:18:49.647Z,24.70
2018-09-19T19:21:17.948Z,24.60
2018-09-19T19:23:46.293Z,24.60
2018-09-19T19:26:14.606Z,24.50
2018-09-19T19:28:43.051Z,24.40
2018-09-19T19:31:11.394Z,24.40
2018-09-19T19:33:39.952Z,24.30
2018-09-19T19:36:08.263Z,24.20
2018-09-19T19:38:36.647Z,24.20
2018-09-19T19:41:04.990Z,24.10
2018-09-19T19:43:33.305Z,24.10
2018-09-19T19:46:01.637Z,24.00
2018-09-19T19:48:29.950Z,24.00
2018-09-19T19:50:58.284Z,23.90
2018-09-19T19:53:26.603Z,23.80
2018-09-19T19:55:54.939Z,23.80
2018-09-19T19:58:23.258Z,23.80
2018-09-19T20:00:51.596Z,23.70
2018-09-19T20:03:19.924Z,23.70
2018-09-19T20:05:48.262Z,23.60
2018-09-19T20:08:16.642Z,23.60
2018-09-19T20:10:44.984Z,23.50
2018-09-19T20:13:13.307Z,23.50
2018-09-19T20:15:41.676Z,23.50
2018-09-19T20:18:09.996Z,23.40
2018-09-19T20:20:38.338Z,23.40
2018-09-19T20:23:06.834Z,23.40
2018-09-19T20:25:35.429Z,23.30
2018-09-19T20:28:03.776Z,23.30
2018-09-19T20:30:32.130Z,23.30
2018-09-19T20:33:00.456Z,23.30
2018-09-19T20:35:28.799Z,23.20
2018-09-19T20:37:57.143Z,23.20
2018-09-19T20:40:25.506Z,23.20
2018-09-19T20:42:53.824Z,23.20
2018-09-19T20:45:22.167Z,23.20
2018-09-19T20:47:50.483Z,23.10
2018-09-19T20:50:25.562Z,23.10
2018-09-19T20:52:53.878Z,23.10
2018-09-19T20:55:22.212Z,23.10
2018-09-19T20:57:50.522Z,23.10
2018-09-19T21:00:18.859Z,23.10
2018-09-19T21:02:47.173Z,23.00
2018-09-19T21:05:15.572Z,23.00
2018-09-19T21:07:43.893Z,23.00
2018-09-19T21:10:12.227Z,22.90
2018-09-19T21:12:40.541Z,22.90
2018-09-19T21:15:08.878Z,22.90
2018-09-19T21:17:37.197Z,22.80
2018-09-19T21:20:05.553Z,22.80
2018-09-19T21:22:33.941Z,22.80
2018-09-19T21:25:02.228Z,22.70
2018-09-19T21:27:30.568Z,22.70
2018-09-19T21:29:58.900Z,22.70
2018-09-19T21:32:27.250Z,22.70
2018-09-19T21:34:55.578Z,22.70
2018-09-19T21:37:23.940Z,22.60
2018-09-19T21:39:52.254Z,22.60
2018-09-19T21:42:20.599Z,22.60
2018-09-19T21:44:48.918Z,22.50
2018-09-19T21:47:17.253Z,22.50
2018-09-19T21:49:45.614Z,22.50
2018-09-19T21:52:14.007Z,22.50
2018-09-19T21:54:42.334Z,22.50
2018-09-19T21:57:10.684Z,22.40
2018-09-19T21:59:39.015Z,22.40
2018-09-19T22:02:07.358Z,22.40
2018-09-19T22:04:35.678Z,22.30
2018-09-19T22:07:04.023Z,22.30
2018-09-19T22:09:32.350Z,22.20
2018-09-19T22:12:00.717Z,22.20
2018-09-19T22:14:29.046Z,22.20
2018-09-19T22:16:57.402Z,22.10
2018-09-19T22:19:25.743Z,22.10
2018-09-19T22:21:54.087Z,22.10
2018-09-19T22:24:22.406Z,22.00
2018-09-19T22:26:50.758Z,22.00
2018-09-19T22:29:19.110Z,21.90
2018-09-19T22:31:47.470Z,21.90
2018-09-19T22:34:15.811Z,21.90
2018-09-19T22:36:44.149Z,21.80
2018-09-19T22:39:12.504Z,21.80
2018-09-19T22:41:40.863Z,21.80
2018-09-19T22:44:09.192Z,21.70
2018-09-19T22:46:37.538Z,21.70
2018-09-19T22:49:05.915Z,21.60
2018-09-19T22:54:08.911Z,21.50
2018-09-19T22:56:37.261Z,21.50
2018-09-19T22:59:05.595Z,21.50
2018-09-19T23:01:33.942Z,21.50
2018-09-19T23:04:02.261Z,21.40
2018-09-19T23:09:06.620Z,21.30
2018-09-19T23:11:34.986Z,21.30
2018-09-19T23:14:03.315Z,21.20
2018-09-19T23:16:31.695Z,21.20
2018-09-19T23:19:00.044Z,21.10
2018-09-19T23:21:28.410Z,21.10
2018-09-19T23:23:56.741Z,21.00
2018-09-19T23:26:25.082Z,21.00
2018-09-19T23:28:53.406Z,21.00
2018-09-19T23:31:21.730Z,20.90
2018-09-19T23:33:50.087Z,20.80
2018-09-19T23:36:18.405Z,20.80
2018-09-19T23:38:46.779Z,20.70
2018-09-19T23:41:15.094Z,20.70
2018-09-19T23:43:43.452Z,20.60
2018-09-19T23:46:11.779Z,20.60
2018-09-19T23:48:40.119Z,20.60
2018-09-19T23:51:08.447Z,20.60
2018-09-19T23:53:36.790Z,20.60
2018-09-19T23:56:05.119Z,20.60
2018-09-19T23:58:33.459Z,20.60
